sensor_id;sensor_type;location;lat;lon;timestamp;P1;P2;P0
72908;PMS5003;61051;62.624;17.950;2024-01-07T00:00:23;21;13;
72908;PMS5003;61051;62.624;17.950;2024-01-07T00:02:51;13;10;
72908;PMS5003;61051;62.624;17.950;2024-01-07T00:05:20;24;12;
72908;PMS5003;61051;62.624;17.950;2024-01-07T00:07:48;15;10;
72908;PMS5003;61051;62.624;17.950;2024-01-07T00:10:18;12;12;
72908;PMS5003;61051;62.624;17.950;2024-01-07T00:12:47;21;16;
72908;PMS5003;61051;62.624;17.950;2024-01-07T00:15:15;19;15;
72908;PMS5003;61051;62.624;17.950;2024-01-07T00:17:45;18;13;
72908;PMS5003;61051;62.624;17.950;2024-01-07T00:20:14;22;15;
72908;PMS5003;61051;62.624;17.950;2024-01-07T00:22:43;16;13;
72908;PMS5003;61051;62.624;17.950;2024-01-07T00:25:11;16;15;
72908;PMS5003;61051;62.624;17.950;2024-01-07T00:27:40;18;12;
72908;PMS5003;61051;62.624;17.950;2024-01-07T00:30:10;16;13;
72908;PMS5003;61051;62.624;17.950;2024-01-07T00:32:39;19;12;
72908;PMS5003;61051;62.624;17.950;2024-01-07T00:35:07;16;9;
72908;PMS5003;61051;62.624;17.950;2024-01-07T00:37:35;7;7;
72908;PMS5003;61051;62.624;17.950;2024-01-07T00:40:05;13;10;
72908;PMS5003;61051;62.624;17.950;2024-01-07T00:42:34;10;9;
72908;PMS5003;61051;62.624;17.950;2024-01-07T00:45:03;7;6;
72908;PMS5003;61051;62.624;17.950;2024-01-07T00:47:33;7;7;
72908;PMS5003;61051;62.624;17.950;2024-01-07T00:50:01;10;7;
72908;PMS5003;61051;62.624;17.950;2024-01-07T00:52:30;18;10;
72908;PMS5003;61051;62.624;17.950;2024-01-07T00:55:00;19;12;
72908;PMS5003;61051;62.624;17.950;2024-01-07T00:57:28;12;7;
72908;PMS5003;61051;62.624;17.950;2024-01-07T00:59:57;10;6;
72908;PMS5003;61051;62.624;17.950;2024-01-07T01:02:24;12;7;
72908;PMS5003;61051;62.624;17.950;2024-01-07T01:04:54;9;9;
72908;PMS5003;61051;62.624;17.950;2024-01-07T01:07:23;16;9;
72908;PMS5003;61051;62.624;17.950;2024-01-07T01:09:52;10;9;
72908;PMS5003;61051;62.624;17.950;2024-01-07T01:12:20;10;10;
72908;PMS5003;61051;62.624;17.950;2024-01-07T01:14:48;10;6;
72908;PMS5003;61051;62.624;17.950;2024-01-07T01:17:17;13;9;
72908;PMS5003;61051;62.624;17.950;2024-01-07T01:19:46;16;10;
72908;PMS5003;61051;62.624;17.950;2024-01-07T01:22:16;10;9;
72908;PMS5003;61051;62.624;17.950;2024-01-07T01:24:43;9;9;
72908;PMS5003;61051;62.624;17.950;2024-01-07T01:27:13;12;9;
72908;PMS5003;61051;62.624;17.950;2024-01-07T01:29:42;7;7;
72908;PMS5003;61051;62.624;17.950;2024-01-07T01:32:12;7;7;
72908;PMS5003;61051;62.624;17.950;2024-01-07T01:34:39;7;7;
72908;PMS5003;61051;62.624;17.950;2024-01-07T01:37:09;9;9;
72908;PMS5003;61051;62.624;17.950;2024-01-07T01:39:39;10;7;
72908;PMS5003;61051;62.624;17.950;2024-01-07T01:42:07;15;7;
72908;PMS5003;61051;62.624;17.950;2024-01-07T01:44:35;10;9;
72908;PMS5003;61051;62.624;17.950;2024-01-07T01:47:05;9;6;
72908;PMS5003;61051;62.624;17.950;2024-01-07T01:49:34;13;9;
72908;PMS5003;61051;62.624;17.950;2024-01-07T01:52:03;9;9;
72908;PMS5003;61051;62.624;17.950;2024-01-07T01:54:33;9;9;
72908;PMS5003;61051;62.624;17.950;2024-01-07T01:57:02;10;7;
72908;PMS5003;61051;62.624;17.950;2024-01-07T01:59:32;9;7;
72908;PMS5003;61051;62.624;17.950;2024-01-07T02:02:01;10;7;
72908;PMS5003;61051;62.624;17.950;2024-01-07T02:04:31;6;6;
72908;PMS5003;61051;62.624;17.950;2024-01-07T02:07:01;10;7;
72908;PMS5003;61051;62.624;17.950;2024-01-07T02:09:30;15;9;
72908;PMS5003;61051;62.624;17.950;2024-01-07T02:12:00;10;7;
72908;PMS5003;61051;62.624;17.950;2024-01-07T02:14:29;12;9;
72908;PMS5003;61051;62.624;17.950;2024-01-07T02:16:59;13;9;
72908;PMS5003;61051;62.624;17.950;2024-01-07T02:19:28;7;7;
72908;PMS5003;61051;62.624;17.950;2024-01-07T02:21:57;12;9;
72908;PMS5003;61051;62.624;17.950;2024-01-07T02:24:27;16;13;
72908;PMS5003;61051;62.624;17.950;2024-01-07T02:26:56;15;9;
72908;PMS5003;61051;62.624;17.950;2024-01-07T02:29:25;16;13;
72908;PMS5003;61051;62.624;17.950;2024-01-07T02:31:54;9;9;
72908;PMS5003;61051;62.624;17.950;2024-01-07T02:34:24;15;12;
72908;PMS5003;61051;62.624;17.950;2024-01-07T02:36:53;13;9;
72908;PMS5003;61051;62.624;17.950;2024-01-07T02:39:22;9;9;
72908;PMS5003;61051;62.624;17.950;2024-01-07T02:41:51;6;6;
72908;PMS5003;61051;62.624;17.950;2024-01-07T02:44:18;13;12;
72908;PMS5003;61051;62.624;17.950;2024-01-07T02:46:46;28;27;
72908;PMS5003;61051;62.624;17.950;2024-01-07T02:49:14;25;21;
72908;PMS5003;61051;62.624;17.950;2024-01-07T02:51:41;10;9;
72908;PMS5003;61051;62.624;17.950;2024-01-07T02:54:09;12;10;
72908;PMS5003;61051;62.624;17.950;2024-01-07T02:56:37;12;7;
72908;PMS5003;61051;62.624;17.950;2024-01-07T02:59:04;6;6;
72908;PMS5003;61051;62.624;17.950;2024-01-07T03:01:32;15;12;
72908;PMS5003;61051;62.624;17.950;2024-01-07T03:04:00;16;10;
72908;PMS5003;61051;62.624;17.950;2024-01-07T03:06:29;13;13;
72908;PMS5003;61051;62.624;17.950;2024-01-07T03:08:57;12;12;
72908;PMS5003;61051;62.624;17.950;2024-01-07T03:11:26;9;7;
72908;PMS5003;61051;62.624;17.950;2024-01-07T03:13:56;7;6;
72908;PMS5003;61051;62.624;17.950;2024-01-07T03:16:25;6;4;
72908;PMS5003;61051;62.624;17.950;2024-01-07T03:18:54;9;9;
72908;PMS5003;61051;62.624;17.950;2024-01-07T03:21:24;4;4;
72908;PMS5003;61051;62.624;17.950;2024-01-07T03:23:53;10;9;
72908;PMS5003;61051;62.624;17.950;2024-01-07T03:26:23;7;4;
72908;PMS5003;61051;62.624;17.950;2024-01-07T03:28:52;9;4;
72908;PMS5003;61051;62.624;17.950;2024-01-07T03:31:20;6;6;
72908;PMS5003;61051;62.624;17.950;2024-01-07T03:33:47;10;10;
72908;PMS5003;61051;62.624;17.950;2024-01-07T03:36:15;6;6;
72908;PMS5003;61051;62.624;17.950;2024-01-07T03:38:43;18;16;
72908;PMS5003;61051;62.624;17.950;2024-01-07T03:41:15;33;28;
72908;PMS5003;61051;62.624;17.950;2024-01-07T03:43:45;21;12;
72908;PMS5003;61051;62.624;17.950;2024-01-07T03:46:15;18;12;
72908;PMS5003;61051;62.624;17.950;2024-01-07T03:48:44;33;30;
72908;PMS5003;61051;62.624;17.950;2024-01-07T03:51:12;9;7;
72908;PMS5003;61051;62.624;17.950;2024-01-07T03:53:42;15;13;
72908;PMS5003;61051;62.624;17.950;2024-01-07T03:56:09;22;18;
72908;PMS5003;61051;62.624;17.950;2024-01-07T03:58:37;7;6;
72908;PMS5003;61051;62.624;17.950;2024-01-07T04:01:05;10;7;
72908;PMS5003;61051;62.624;17.950;2024-01-07T04:03:32;12;7;
72908;PMS5003;61051;62.624;17.950;2024-01-07T04:06:01;19;15;
72908;PMS5003;61051;62.624;17.950;2024-01-07T04:08:34;7;7;
72908;PMS5003;61051;62.624;17.950;2024-01-07T04:11:02;12;12;
72908;PMS5003;61051;62.624;17.950;2024-01-07T04:13:31;9;7;
72908;PMS5003;61051;62.624;17.950;2024-01-07T04:16:01;9;7;
72908;PMS5003;61051;62.624;17.950;2024-01-07T04:18:30;13;9;
72908;PMS5003;61051;62.624;17.950;2024-01-07T04:20:57;12;12;
72908;PMS5003;61051;62.624;17.950;2024-01-07T04:23:27;7;7;
72908;PMS5003;61051;62.624;17.950;2024-01-07T04:25:56;7;7;
72908;PMS5003;61051;62.624;17.950;2024-01-07T04:28:24;16;10;
72908;PMS5003;61051;62.624;17.950;2024-01-07T04:30:54;6;6;
72908;PMS5003;61051;62.624;17.950;2024-01-07T04:33:21;9;9;
72908;PMS5003;61051;62.624;17.950;2024-01-07T04:35:49;18;13;
72908;PMS5003;61051;62.624;17.950;2024-01-07T04:38:17;6;6;
72908;PMS5003;61051;62.624;17.950;2024-01-07T04:40:45;18;18;
72908;PMS5003;61051;62.624;17.950;2024-01-07T04:43:13;18;18;
72908;PMS5003;61051;62.624;17.950;2024-01-07T04:45:40;18;16;
72908;PMS5003;61051;62.624;17.950;2024-01-07T04:48:09;12;7;
72908;PMS5003;61051;62.624;17.950;2024-01-07T04:50:36;18;16;
72908;PMS5003;61051;62.624;17.950;2024-01-07T04:53:06;21;15;
72908;PMS5003;61051;62.624;17.950;2024-01-07T04:55:34;33;30;
72908;PMS5003;61051;62.624;17.950;2024-01-07T04:58:02;31;28;
72908;PMS5003;61051;62.624;17.950;2024-01-07T05:03:34;18;15;
72908;PMS5003;61051;62.624;17.950;2024-01-07T05:06:02;22;21;
72908;PMS5003;61051;62.624;17.950;2024-01-07T05:08:30;16;13;
72908;PMS5003;61051;62.624;17.950;2024-01-07T05:10:58;16;9;
72908;PMS5003;61051;62.624;17.950;2024-01-07T05:13:28;16;10;
72908;PMS5003;61051;62.624;17.950;2024-01-07T05:15:57;12;9;
72908;PMS5003;61051;62.624;17.950;2024-01-07T05:18:25;19;12;
72908;PMS5003;61051;62.624;17.950;2024-01-07T05:20:55;16;15;
72908;PMS5003;61051;62.624;17.950;2024-01-07T05:23:22;18;18;
72908;PMS5003;61051;62.624;17.950;2024-01-07T05:25:50;13;12;
72908;PMS5003;61051;62.624;17.950;2024-01-07T05:28:19;19;15;
72908;PMS5003;61051;62.624;17.950;2024-01-07T05:30:46;16;13;
72908;PMS5003;61051;62.624;17.950;2024-01-07T05:33:14;18;15;
72908;PMS5003;61051;62.624;17.950;2024-01-07T05:35:42;13;10;
72908;PMS5003;61051;62.624;17.950;2024-01-07T05:38:10;13;10;
72908;PMS5003;61051;62.624;17.950;2024-01-07T05:40:38;12;12;
72908;PMS5003;61051;62.624;17.950;2024-01-07T05:43:06;16;13;
72908;PMS5003;61051;62.624;17.950;2024-01-07T05:45:34;22;13;
72908;PMS5003;61051;62.624;17.950;2024-01-07T05:48:02;18;18;
72908;PMS5003;61051;62.624;17.950;2024-01-07T05:50:32;19;15;
72908;PMS5003;61051;62.624;17.950;2024-01-07T05:53:01;27;18;
72908;PMS5003;61051;62.624;17.950;2024-01-07T05:55:30;28;21;
72908;PMS5003;61051;62.624;17.950;2024-01-07T05:57:58;21;18;
72908;PMS5003;61051;62.624;17.950;2024-01-07T06:00:27;16;13;
72908;PMS5003;61051;62.624;17.950;2024-01-07T06:02:55;18;18;
72908;PMS5003;61051;62.624;17.950;2024-01-07T06:05:23;15;15;
72908;PMS5003;61051;62.624;17.950;2024-01-07T06:07:51;19;19;
72908;PMS5003;61051;62.624;17.950;2024-01-07T06:10:18;45;43;
72908;PMS5003;61051;62.624;17.950;2024-01-07T06:12:47;12;9;
72908;PMS5003;61051;62.624;17.950;2024-01-07T06:15:15;18;12;
72908;PMS5003;61051;62.624;17.950;2024-01-07T06:17:44;10;7;
72908;PMS5003;61051;62.624;17.950;2024-01-07T06:20:14;13;10;
72908;PMS5003;61051;62.624;17.950;2024-01-07T06:22:43;19;15;
72908;PMS5003;61051;62.624;17.950;2024-01-07T06:25:12;37;25;
72908;PMS5003;61051;62.624;17.950;2024-01-07T06:27:41;28;25;
72908;PMS5003;61051;62.624;17.950;2024-01-07T06:30:09;15;15;
72908;PMS5003;61051;62.624;17.950;2024-01-07T06:32:39;18;15;
72908;PMS5003;61051;62.624;17.950;2024-01-07T06:35:08;31;19;
72908;PMS5003;61051;62.624;17.950;2024-01-07T06:37:37;19;13;
72908;PMS5003;61051;62.624;17.950;2024-01-07T06:40:07;18;12;
72908;PMS5003;61051;62.624;17.950;2024-01-07T06:42:36;37;25;
72908;PMS5003;61051;62.624;17.950;2024-01-07T06:45:05;28;15;
72908;PMS5003;61051;62.624;17.950;2024-01-07T06:47:34;15;15;
72908;PMS5003;61051;62.624;17.950;2024-01-07T06:50:04;27;13;
72908;PMS5003;61051;62.624;17.950;2024-01-07T06:52:33;21;16;
72908;PMS5003;61051;62.624;17.950;2024-01-07T06:55:02;22;19;
72908;PMS5003;61051;62.624;17.950;2024-01-07T06:57:32;21;18;
72908;PMS5003;61051;62.624;17.950;2024-01-07T07:00:01;33;22;
72908;PMS5003;61051;62.624;17.950;2024-01-07T07:02:30;37;27;
72908;PMS5003;61051;62.624;17.950;2024-01-07T07:04:59;19;16;
72908;PMS5003;61051;62.624;17.950;2024-01-07T07:07:27;33;28;
72908;PMS5003;61051;62.624;17.950;2024-01-07T07:09:56;34;15;
72908;PMS5003;61051;62.624;17.950;2024-01-07T07:12:25;19;12;
72908;PMS5003;61051;62.624;17.950;2024-01-07T07:14:54;22;10;
72908;PMS5003;61051;62.624;17.950;2024-01-07T07:17:23;60;54;
72908;PMS5003;61051;62.624;17.950;2024-01-07T07:19:51;34;25;
72908;PMS5003;61051;62.624;17.950;2024-01-07T07:22:20;24;15;
72908;PMS5003;61051;62.624;17.950;2024-01-07T07:24:48;31;30;
72908;PMS5003;61051;62.624;17.950;2024-01-07T07:27:17;31;28;
72908;PMS5003;61051;62.624;17.950;2024-01-07T07:29:46;46;37;
72908;PMS5003;61051;62.624;17.950;2024-01-07T07:32:14;12;12;
72908;PMS5003;61051;62.624;17.950;2024-01-07T07:34:42;16;6;
72908;PMS5003;61051;62.624;17.950;2024-01-07T07:37:10;31;19;
72908;PMS5003;61051;62.624;17.950;2024-01-07T07:39:38;21;18;
72908;PMS5003;61051;62.624;17.950;2024-01-07T07:42:06;27;18;
72908;PMS5003;61051;62.624;17.950;2024-01-07T07:44:34;24;18;
72908;PMS5003;61051;62.624;17.950;2024-01-07T07:47:02;22;19;
72908;PMS5003;61051;62.624;17.950;2024-01-07T07:49:31;21;15;
72908;PMS5003;61051;62.624;17.950;2024-01-07T07:51:59;16;13;
72908;PMS5003;61051;62.624;17.950;2024-01-07T07:54:29;10;9;
72908;PMS5003;61051;62.624;17.950;2024-01-07T07:56:57;22;15;
72908;PMS5003;61051;62.624;17.950;2024-01-07T07:59:25;16;13;
72908;PMS5003;61051;62.624;17.950;2024-01-07T08:01:53;21;18;
72908;PMS5003;61051;62.624;17.950;2024-01-07T08:04:22;27;25;
72908;PMS5003;61051;62.624;17.950;2024-01-07T08:06:50;19;18;
72908;PMS5003;61051;62.624;17.950;2024-01-07T08:09:19;15;12;
72908;PMS5003;61051;62.624;17.950;2024-01-07T08:11:47;24;21;
72908;PMS5003;61051;62.624;17.950;2024-01-07T08:14:16;16;12;
72908;PMS5003;61051;62.624;17.950;2024-01-07T08:16:45;28;13;
72908;PMS5003;61051;62.624;17.950;2024-01-07T08:19:15;24;16;
72908;PMS5003;61051;62.624;17.950;2024-01-07T08:21:44;18;9;
72908;PMS5003;61051;62.624;17.950;2024-01-07T08:24:13;18;15;
72908;PMS5003;61051;62.624;17.950;2024-01-07T08:26:43;19;15;
72908;PMS5003;61051;62.624;17.950;2024-01-07T08:29:10;19;16;
72908;PMS5003;61051;62.624;17.950;2024-01-07T08:31:39;13;13;
72908;PMS5003;61051;62.624;17.950;2024-01-07T08:34:08;15;13;
72908;PMS5003;61051;62.624;17.950;2024-01-07T08:36:36;16;15;
72908;PMS5003;61051;62.624;17.950;2024-01-07T08:39:06;15;12;
72908;PMS5003;61051;62.624;17.950;2024-01-07T08:41:35;18;12;
72908;PMS5003;61051;62.624;17.950;2024-01-07T08:44:03;16;9;
72908;PMS5003;61051;62.624;17.950;2024-01-07T08:46:31;19;13;
72908;PMS5003;61051;62.624;17.950;2024-01-07T08:48:59;16;13;
72908;PMS5003;61051;62.624;17.950;2024-01-07T08:51:27;24;13;
72908;PMS5003;61051;62.624;17.950;2024-01-07T08:53:56;18;13;
72908;PMS5003;61051;62.624;17.950;2024-01-07T08:56:25;25;19;
72908;PMS5003;61051;62.624;17.950;2024-01-07T08:58:53;19;16;
72908;PMS5003;61051;62.624;17.950;2024-01-07T09:01:22;27;18;
72908;PMS5003;61051;62.624;17.950;2024-01-07T09:03:51;33;21;
72908;PMS5003;61051;62.624;17.950;2024-01-07T09:06:19;31;27;
72908;PMS5003;61051;62.624;17.950;2024-01-07T09:08:48;27;16;
72908;PMS5003;61051;62.624;17.950;2024-01-07T09:11:18;18;12;
72908;PMS5003;61051;62.624;17.950;2024-01-07T09:13:47;25;13;
72908;PMS5003;61051;62.624;17.950;2024-01-07T09:16:17;25;16;
72908;PMS5003;61051;62.624;17.950;2024-01-07T09:18:45;30;19;
72908;PMS5003;61051;62.624;17.950;2024-01-07T09:21:14;30;21;
72908;PMS5003;61051;62.624;17.950;2024-01-07T09:23:44;33;22;
72908;PMS5003;61051;62.624;17.950;2024-01-07T09:26:12;49;28;
72908;PMS5003;61051;62.624;17.950;2024-01-07T09:28:40;46;33;
72908;PMS5003;61051;62.624;17.950;2024-01-07T09:31:09;34;27;
72908;PMS5003;61051;62.624;17.950;2024-01-07T09:33:37;34;25;
72908;PMS5003;61051;62.624;17.950;2024-01-07T09:36:06;34;24;
72908;PMS5003;61051;62.624;17.950;2024-01-07T09:38:36;30;25;
72908;PMS5003;61051;62.624;17.950;2024-01-07T09:41:05;27;18;
72908;PMS5003;61051;62.624;17.950;2024-01-07T09:43:33;27;18;
72908;PMS5003;61051;62.624;17.950;2024-01-07T09:46:01;16;10;
72908;PMS5003;61051;62.624;17.950;2024-01-07T09:48:31;19;15;
72908;PMS5003;61051;62.624;17.950;2024-01-07T09:51:00;30;16;
72908;PMS5003;61051;62.624;17.950;2024-01-07T09:53:30;27;19;
72908;PMS5003;61051;62.624;17.950;2024-01-07T09:56:01;21;18;
72908;PMS5003;61051;62.624;17.950;2024-01-07T09:58:40;28;22;
72908;PMS5003;61051;62.624;17.950;2024-01-07T10:01:08;25;18;
72908;PMS5003;61051;62.624;17.950;2024-01-07T10:03:38;25;18;
72908;PMS5003;61051;62.624;17.950;2024-01-07T10:06:06;34;27;
72908;PMS5003;61051;62.624;17.950;2024-01-07T10:08:34;30;22;
72908;PMS5003;61051;62.624;17.950;2024-01-07T10:11:03;22;21;
72908;PMS5003;61051;62.624;17.950;2024-01-07T10:13:31;24;22;
72908;PMS5003;61051;62.624;17.950;2024-01-07T10:15:59;21;18;
72908;PMS5003;61051;62.624;17.950;2024-01-07T10:18:27;66;52;
72908;PMS5003;61051;62.624;17.950;2024-01-07T10:20:58;46;36;
72908;PMS5003;61051;62.624;17.950;2024-01-07T10:23:29;75;49;
72908;PMS5003;61051;62.624;17.950;2024-01-07T10:25:59;49;31;
72908;PMS5003;61051;62.624;17.950;2024-01-07T10:28:28;37;33;
72908;PMS5003;61051;62.624;17.950;2024-01-07T10:30:56;33;24;
72908;PMS5003;61051;62.624;17.950;2024-01-07T10:33:25;37;25;
72908;PMS5003;61051;62.624;17.950;2024-01-07T10:36:00;28;24;
72908;PMS5003;61051;62.624;17.950;2024-01-07T10:38:30;55;37;
72908;PMS5003;61051;62.624;17.950;2024-01-07T10:40:59;34;30;
72908;PMS5003;61051;62.624;17.950;2024-01-07T10:43:29;49;33;
72908;PMS5003;61051;62.624;17.950;2024-01-07T10:45:59;43;37;
72908;PMS5003;61051;62.624;17.950;2024-01-07T10:48:30;39;34;
72908;PMS5003;61051;62.624;17.950;2024-01-07T10:51:00;37;33;
72908;PMS5003;61051;62.624;17.950;2024-01-07T10:53:32;48;36;
72908;PMS5003;61051;62.624;17.950;2024-01-07T10:56:03;51;43;
72908;PMS5003;61051;62.624;17.950;2024-01-07T10:58:33;54;42;
72908;PMS5003;61051;62.624;17.950;2024-01-07T11:03:36;54;42;
72908;PMS5003;61051;62.624;17.950;2024-01-07T11:06:11;60;43;
72908;PMS5003;61051;62.624;17.950;2024-01-07T11:08:50;75;51;
72908;PMS5003;61051;62.624;17.950;2024-01-07T11:11:24;43;25;
72908;PMS5003;61051;62.624;17.950;2024-01-07T11:13:56;21;19;
72908;PMS5003;61051;62.624;17.950;2024-01-07T11:16:40;22;18;
72908;PMS5003;61051;62.624;17.950;2024-01-07T11:19:12;22;13;
72908;PMS5003;61051;62.624;17.950;2024-01-07T11:21:42;22;16;
72908;PMS5003;61051;62.624;17.950;2024-01-07T11:24:18;34;15;
72908;PMS5003;61051;62.624;17.950;2024-01-07T11:27:07;16;13;
72908;PMS5003;61051;62.624;17.950;2024-01-07T11:29:37;25;13;
72908;PMS5003;61051;62.624;17.950;2024-01-07T11:32:06;15;12;
72908;PMS5003;61051;62.624;17.950;2024-01-07T11:34:39;15;15;
72908;PMS5003;61051;62.624;17.950;2024-01-07T11:37:10;19;13;
72908;PMS5003;61051;62.624;17.950;2024-01-07T11:39:41;27;18;
72908;PMS5003;61051;62.624;17.950;2024-01-07T11:42:10;37;22;
72908;PMS5003;61051;62.624;17.950;2024-01-07T11:44:44;22;19;
72908;PMS5003;61051;62.624;17.950;2024-01-07T11:47:14;33;21;
72908;PMS5003;61051;62.624;17.950;2024-01-07T11:49:43;31;21;
72908;PMS5003;61051;62.624;17.950;2024-01-07T11:52:12;39;24;
72908;PMS5003;61051;62.624;17.950;2024-01-07T11:54:41;36;31;
72908;PMS5003;61051;62.624;17.950;2024-01-07T11:57:10;46;30;
72908;PMS5003;61051;62.624;17.950;2024-01-07T11:59:38;46;27;
72908;PMS5003;61051;62.624;17.950;2024-01-07T12:02:07;45;31;
72908;PMS5003;61051;62.624;17.950;2024-01-07T12:04:36;43;27;
72908;PMS5003;61051;62.624;17.950;2024-01-07T12:07:04;43;27;
72908;PMS5003;61051;62.624;17.950;2024-01-07T12:09:34;27;25;
72908;PMS5003;61051;62.624;17.950;2024-01-07T12:12:02;34;25;
72908;PMS5003;61051;62.624;17.950;2024-01-07T12:14:32;33;18;
72908;PMS5003;61051;62.624;17.950;2024-01-07T12:17:01;34;25;
72908;PMS5003;61051;62.624;17.950;2024-01-07T12:19:31;36;24;
72908;PMS5003;61051;62.624;17.950;2024-01-07T12:22:01;30;19;
72908;PMS5003;61051;62.624;17.950;2024-01-07T12:24:31;37;25;
72908;PMS5003;61051;62.624;17.950;2024-01-07T12:27:03;40;25;
72908;PMS5003;61051;62.624;17.950;2024-01-07T12:29:32;48;27;
72908;PMS5003;61051;62.624;17.950;2024-01-07T12:32:01;42;36;
72908;PMS5003;61051;62.624;17.950;2024-01-07T12:34:30;33;31;
72908;PMS5003;61051;62.624;17.950;2024-01-07T12:36:59;57;31;
72908;PMS5003;61051;62.624;17.950;2024-01-07T12:39:27;39;30;
72908;PMS5003;61051;62.624;17.950;2024-01-07T12:41:56;45;34;
72908;PMS5003;61051;62.624;17.950;2024-01-07T12:44:26;46;36;
72908;PMS5003;61051;62.624;17.950;2024-01-07T12:46:55;36;31;
72908;PMS5003;61051;62.624;17.950;2024-01-07T12:49:25;37;24;
72908;PMS5003;61051;62.624;17.950;2024-01-07T12:51:54;40;33;
72908;PMS5003;61051;62.624;17.950;2024-01-07T12:54:23;37;31;
72908;PMS5003;61051;62.624;17.950;2024-01-07T12:56:51;51;36;
72908;PMS5003;61051;62.624;17.950;2024-01-07T12:59:20;40;34;
72908;PMS5003;61051;62.624;17.950;2024-01-07T13:01:47;48;36;
72908;PMS5003;61051;62.624;17.950;2024-01-07T13:04:16;49;36;
72908;PMS5003;61051;62.624;17.950;2024-01-07T13:06:47;46;33;
72908;PMS5003;61051;62.624;17.950;2024-01-07T13:09:17;36;33;
72908;PMS5003;61051;62.624;17.950;2024-01-07T13:11:46;57;40;
72908;PMS5003;61051;62.624;17.950;2024-01-07T13:14:14;48;42;
72908;PMS5003;61051;62.624;17.950;2024-01-07T13:16:42;55;34;
72908;PMS5003;61051;62.624;17.950;2024-01-07T13:19:11;40;28;
72908;PMS5003;61051;62.624;17.950;2024-01-07T13:21:40;40;33;
72908;PMS5003;61051;62.624;17.950;2024-01-07T13:24:08;37;30;
72908;PMS5003;61051;62.624;17.950;2024-01-07T13:26:38;39;28;
72908;PMS5003;61051;62.624;17.950;2024-01-07T13:29:07;40;27;
72908;PMS5003;61051;62.624;17.950;2024-01-07T13:31:35;27;22;
72908;PMS5003;61051;62.624;17.950;2024-01-07T13:34:03;43;39;
72908;PMS5003;61051;62.624;17.950;2024-01-07T13:36:32;37;31;
72908;PMS5003;61051;62.624;17.950;2024-01-07T13:39:01;45;33;
72908;PMS5003;61051;62.624;17.950;2024-01-07T13:41:30;55;37;
72908;PMS5003;61051;62.624;17.950;2024-01-07T13:43:59;66;45;
72908;PMS5003;61051;62.624;17.950;2024-01-07T13:46:27;78;54;
72908;PMS5003;61051;62.624;17.950;2024-01-07T13:48:56;63;39;
72908;PMS5003;61051;62.624;17.950;2024-01-07T13:51:24;42;34;
72908;PMS5003;61051;62.624;17.950;2024-01-07T13:53:53;45;31;
72908;PMS5003;61051;62.624;17.950;2024-01-07T13:56:22;33;30;
72908;PMS5003;61051;62.624;17.950;2024-01-07T13:58:52;49;36;
72908;PMS5003;61051;62.624;17.950;2024-01-07T14:01:20;57;39;
72908;PMS5003;61051;62.624;17.950;2024-01-07T14:03:48;46;31;
72908;PMS5003;61051;62.624;17.950;2024-01-07T14:06:17;52;34;
72908;PMS5003;61051;62.624;17.950;2024-01-07T14:08:46;43;33;
72908;PMS5003;61051;62.624;17.950;2024-01-07T14:11:14;39;27;
72908;PMS5003;61051;62.624;17.950;2024-01-07T14:13:43;30;22;
72908;PMS5003;61051;62.624;17.950;2024-01-07T14:16:11;45;31;
72908;PMS5003;61051;62.624;17.950;2024-01-07T14:18:41;40;31;
72908;PMS5003;61051;62.624;17.950;2024-01-07T14:21:09;82;57;
72908;PMS5003;61051;62.624;17.950;2024-01-07T14:23:37;91;55;
72908;PMS5003;61051;62.624;17.950;2024-01-07T14:26:06;73;58;
72908;PMS5003;61051;62.624;17.950;2024-01-07T14:28:33;75;49;
72908;PMS5003;61051;62.624;17.950;2024-01-07T14:31:02;70;46;
72908;PMS5003;61051;62.624;17.950;2024-01-07T14:33:31;61;46;
72908;PMS5003;61051;62.624;17.950;2024-01-07T14:36:01;49;34;
72908;PMS5003;61051;62.624;17.950;2024-01-07T14:38:31;49;33;
72908;PMS5003;61051;62.624;17.950;2024-01-07T14:40:59;43;27;
72908;PMS5003;61051;62.624;17.950;2024-01-07T14:43:28;31;27;
72908;PMS5003;61051;62.624;17.950;2024-01-07T14:45:56;30;27;
72908;PMS5003;61051;62.624;17.950;2024-01-07T14:48:25;30;25;
72908;PMS5003;61051;62.624;17.950;2024-01-07T14:50:53;39;27;
72908;PMS5003;61051;62.624;17.950;2024-01-07T14:53:22;30;25;
72908;PMS5003;61051;62.624;17.950;2024-01-07T14:55:51;40;25;
72908;PMS5003;61051;62.624;17.950;2024-01-07T14:58:20;24;21;
72908;PMS5003;61051;62.624;17.950;2024-01-07T15:00:47;33;27;
72908;PMS5003;61051;62.624;17.950;2024-01-07T15:03:17;75;54;
72908;PMS5003;61051;62.624;17.950;2024-01-07T15:05:48;43;30;
72908;PMS5003;61051;62.624;17.950;2024-01-07T15:08:17;43;28;
72908;PMS5003;61051;62.624;17.950;2024-01-07T15:10:46;55;34;
72908;PMS5003;61051;62.624;17.950;2024-01-07T15:13:15;51;40;
72908;PMS5003;61051;62.624;17.950;2024-01-07T15:15:43;42;33;
72908;PMS5003;61051;62.624;17.950;2024-01-07T15:18:13;39;33;
72908;PMS5003;61051;62.624;17.950;2024-01-07T15:20:42;43;36;
72908;PMS5003;61051;62.624;17.950;2024-01-07T15:23:11;36;28;
72908;PMS5003;61051;62.624;17.950;2024-01-07T15:25:39;39;33;
72908;PMS5003;61051;62.624;17.950;2024-01-07T15:28:07;46;31;
72908;PMS5003;61051;62.624;17.950;2024-01-07T15:30:37;42;27;
72908;PMS5003;61051;62.624;17.950;2024-01-07T15:33:06;43;33;
72908;PMS5003;61051;62.624;17.950;2024-01-07T15:35:35;52;36;
72908;PMS5003;61051;62.624;17.950;2024-01-07T15:38:04;45;33;
72908;PMS5003;61051;62.624;17.950;2024-01-07T15:40:33;37;31;
72908;PMS5003;61051;62.624;17.950;2024-01-07T15:43:02;34;28;
72908;PMS5003;61051;62.624;17.950;2024-01-07T15:45:31;48;33;
72908;PMS5003;61051;62.624;17.950;2024-01-07T15:47:59;40;33;
72908;PMS5003;61051;62.624;17.950;2024-01-07T15:50:27;43;30;
72908;PMS5003;61051;62.624;17.950;2024-01-07T15:52:56;46;31;
72908;PMS5003;61051;62.624;17.950;2024-01-07T15:55:24;36;30;
72908;PMS5003;61051;62.624;17.950;2024-01-07T15:57:53;34;24;
72908;PMS5003;61051;62.624;17.950;2024-01-07T16:00:21;40;30;
72908;PMS5003;61051;62.624;17.950;2024-01-07T16:02:49;39;27;
72908;PMS5003;61051;62.624;17.950;2024-01-07T16:05:19;43;28;
72908;PMS5003;61051;62.624;17.950;2024-01-07T16:07:48;33;21;
72908;PMS5003;61051;62.624;17.950;2024-01-07T16:10:16;37;22;
72908;PMS5003;61051;62.624;17.950;2024-01-07T16:12:46;37;21;
72908;PMS5003;61051;62.624;17.950;2024-01-07T16:15:14;31;28;
72908;PMS5003;61051;62.624;17.950;2024-01-07T16:17:43;33;27;
72908;PMS5003;61051;62.624;17.950;2024-01-07T16:20:11;40;27;
72908;PMS5003;61051;62.624;17.950;2024-01-07T16:22:40;30;28;